sensor_id;sensor_type;location;lat;lon;timestamp;P1;durP1;ratioP1;P2;durP2;ratioP2
21424;SDS011;10873;51.132;16.848;2022-08-01T00:02:07;3.83;;;2.00;;
21424;SDS011;10873;51.132;16.848;2022-08-01T00:04:33;2.63;;;1.83;;
21424;SDS011;10873;51.132;16.848;2022-08-01T00:06:59;3.10;;;2.10;;
21424;SDS011;10873;51.132;16.848;2022-08-01T00:09:25;3.85;;;1.63;;
21424;SDS011;10873;51.132;16.848;2022-08-01T00:11:51;3.13;;;2.00;;
21424;SDS011;10873;51.132;16.848;2022-08-01T00:14:19;2.15;;;1.75;;
21424;SDS011;10873;51.132;16.848;2022-08-01T00:16:45;4.30;;;2.22;;
21424;SDS011;10873;51.132;16.848;2022-08-01T00:19:11;4.47;;;2.13;;
21424;SDS011;10873;51.132;16.848;2022-08-01T00:21:37;1.65;;;1.55;;
21424;SDS011;10873;51.132;16.848;2022-08-01T00:24:03;2.67;;;1.77;;
21424;SDS011;10873;51.132;16.848;2022-08-01T00:26:29;2.83;;;1.77;;
21424;SDS011;10873;51.132;16.848;2022-08-01T00:28:55;3.35;;;1.77;;
21424;SDS011;10873;51.132;16.848;2022-08-01T00:31:23;3.45;;;2.10;;
21424;SDS011;10873;51.132;16.848;2022-08-01T00:33:49;4.53;;;2.13;;
21424;SDS011;10873;51.132;16.848;2022-08-01T00:36:15;2.88;;;1.95;;
21424;SDS011;10873;51.132;16.848;2022-08-01T00:38:41;2.20;;;1.80;;
21424;SDS011;10873;51.132;16.848;2022-08-01T00:41:07;3.30;;;1.98;;
21424;SDS011;10873;51.132;16.848;2022-08-01T00:43:33;2.65;;;1.90;;
21424;SDS011;10873;51.132;16.848;2022-08-01T00:45:59;2.05;;;1.70;;
21424;SDS011;10873;51.132;16.848;2022-08-01T00:48:27;2.97;;;1.83;;
21424;SDS011;10873;51.132;16.848;2022-08-01T00:50:53;2.15;;;1.95;;
21424;SDS011;10873;51.132;16.848;2022-08-01T00:53:19;5.75;;;1.88;;
21424;SDS011;10873;51.132;16.848;2022-08-01T00:55:46;2.67;;;1.60;;
21424;SDS011;10873;51.132;16.848;2022-08-01T00:58:14;4.85;;;2.05;;
21424;SDS011;10873;51.132;16.848;2022-08-01T01:00:40;2.85;;;1.95;;
21424;SDS011;10873;51.132;16.848;2022-08-01T01:03:06;3.25;;;1.90;;
21424;SDS011;10873;51.132;16.848;2022-08-01T01:05:35;1.92;;;1.58;;
21424;SDS011;10873;51.132;16.848;2022-08-01T01:08:12;2.88;;;1.80;;
21424;SDS011;10873;51.132;16.848;2022-08-01T01:10:46;3.40;;;1.80;;
21424;SDS011;10873;51.132;16.848;2022-08-01T01:13:18;2.55;;;1.65;;
21424;SDS011;10873;51.132;16.848;2022-08-01T01:15:50;3.45;;;1.80;;
21424;SDS011;10873;51.132;16.848;2022-08-01T01:18:22;4.53;;;1.70;;
21424;SDS011;10873;51.132;16.848;2022-08-01T01:20:54;2.05;;;1.70;;
21424;SDS011;10873;51.132;16.848;2022-08-01T01:23:34;4.55;;;1.60;;
21424;SDS011;10873;51.132;16.848;2022-08-01T01:26:17;2.10;;;1.60;;
21424;SDS011;10873;51.132;16.848;2022-08-01T01:28:56;2.65;;;1.73;;
21424;SDS011;10873;51.132;16.848;2022-08-01T01:31:27;3.67;;;1.90;;
21424;SDS011;10873;51.132;16.848;2022-08-01T01:33:56;2.25;;;1.70;;
21424;SDS011;10873;51.132;16.848;2022-08-01T01:36:25;3.67;;;1.83;;
21424;SDS011;10873;51.132;16.848;2022-08-01T01:38:52;2.65;;;1.75;;
21424;SDS011;10873;51.132;16.848;2022-08-01T01:41:20;3.63;;;1.70;;
21424;SDS011;10873;51.132;16.848;2022-08-01T01:43:47;3.60;;;1.80;;
21424;SDS011;10873;51.132;16.848;2022-08-01T01:46:16;2.67;;;1.75;;
21424;SDS011;10873;51.132;16.848;2022-08-01T01:48:47;2.10;;;1.90;;
21424;SDS011;10873;51.132;16.848;2022-08-01T01:51:15;3.78;;;2.00;;
21424;SDS011;10873;51.132;16.848;2022-08-01T01:53:43;2.40;;;1.75;;
21424;SDS011;10873;51.132;16.848;2022-08-01T01:56:10;2.85;;;1.88;;
21424;SDS011;10873;51.132;16.848;2022-08-01T01:58:40;2.08;;;1.63;;
21424;SDS011;10873;51.132;16.848;2022-08-01T02:01:09;2.80;;;1.73;;
21424;SDS011;10873;51.132;16.848;2022-08-01T02:03:38;2.85;;;1.70;;
21424;SDS011;10873;51.132;16.848;2022-08-01T02:06:06;2.10;;;1.70;;
21424;SDS011;10873;51.132;16.848;2022-08-01T02:08:34;5.55;;;1.73;;
21424;SDS011;10873;51.132;16.848;2022-08-01T02:11:03;2.92;;;1.65;;
21424;SDS011;10873;51.132;16.848;2022-08-01T02:13:48;3.00;;;1.75;;
21424;SDS011;10873;51.132;16.848;2022-08-01T02:31:52;5.45;;;1.90;;
21424;SDS011;10873;51.132;16.848;2022-08-01T02:36:55;2.22;;;1.60;;
21424;SDS011;10873;51.132;16.848;2022-08-01T02:39:22;4.40;;;1.88;;
21424;SDS011;10873;51.132;16.848;2022-08-01T02:41:53;6.55;;;2.25;;
21424;SDS011;10873;51.132;16.848;2022-08-01T02:44:24;7.22;;;2.20;;
21424;SDS011;10873;51.132;16.848;2022-08-01T02:46:57;3.22;;;1.77;;
21424;SDS011;10873;51.132;16.848;2022-08-01T02:49:28;4.68;;;1.98;;
21424;SDS011;10873;51.132;16.848;2022-08-01T02:51:57;2.05;;;1.70;;
21424;SDS011;10873;51.132;16.848;2022-08-01T02:54:25;3.22;;;1.70;;
21424;SDS011;10873;51.132;16.848;2022-08-01T02:56:52;2.72;;;1.70;;
21424;SDS011;10873;51.132;16.848;2022-08-01T02:59:21;3.75;;;1.77;;
21424;SDS011;10873;51.132;16.848;2022-08-01T03:01:51;2.28;;;1.52;;
21424;SDS011;10873;51.132;16.848;2022-08-01T03:04:20;2.65;;;1.77;;
21424;SDS011;10873;51.132;16.848;2022-08-01T03:06:48;3.28;;;1.67;;
21424;SDS011;10873;51.132;16.848;2022-08-01T03:09:15;3.55;;;1.40;;
21424;SDS011;10873;51.132;16.848;2022-08-01T03:11:43;3.80;;;1.80;;
21424;SDS011;10873;51.132;16.848;2022-08-01T03:14:11;2.63;;;1.60;;
21424;SDS011;10873;51.132;16.848;2022-08-01T03:16:39;1.92;;;1.70;;
21424;SDS011;10873;51.132;16.848;2022-08-01T03:19:09;1.73;;;1.58;;
21424;SDS011;10873;51.132;16.848;2022-08-01T03:21:38;3.17;;;2.00;;
21424;SDS011;10873;51.132;16.848;2022-08-01T03:24:05;4.70;;;1.85;;
21424;SDS011;10873;51.132;16.848;2022-08-01T03:26:33;2.60;;;1.60;;
21424;SDS011;10873;51.132;16.848;2022-08-01T03:29:02;3.38;;;1.60;;
21424;SDS011;10873;51.132;16.848;2022-08-01T03:31:33;3.45;;;1.98;;
21424;SDS011;10873;51.132;16.848;2022-08-01T03:34:01;3.38;;;1.80;;
21424;SDS011;10873;51.132;16.848;2022-08-01T03:36:27;3.28;;;1.98;;
21424;SDS011;10873;51.132;16.848;2022-08-01T03:38:58;2.35;;;1.95;;
21424;SDS011;10873;51.132;16.848;2022-08-01T03:41:28;2.30;;;1.80;;
21424;SDS011;10873;51.132;16.848;2022-08-01T03:44:00;3.78;;;1.70;;
21424;SDS011;10873;51.132;16.848;2022-08-01T03:46:30;2.63;;;1.90;;
21424;SDS011;10873;51.132;16.848;2022-08-01T03:49:00;3.90;;;1.67;;
21424;SDS011;10873;51.132;16.848;2022-08-01T03:51:31;3.25;;;1.75;;
21424;SDS011;10873;51.132;16.848;2022-08-01T03:54:00;3.40;;;2.08;;
21424;SDS011;10873;51.132;16.848;2022-08-01T03:56:27;3.88;;;1.80;;
21424;SDS011;10873;51.132;16.848;2022-08-01T03:58:57;2.80;;;2.00;;
21424;SDS011;10873;51.132;16.848;2022-08-01T04:01:24;5.22;;;1.83;;
21424;SDS011;10873;51.132;16.848;2022-08-01T04:03:51;4.25;;;1.80;;
21424;SDS011;10873;51.132;16.848;2022-08-01T04:06:17;9.38;;;2.08;;
21424;SDS011;10873;51.132;16.848;2022-08-01T04:08:43;3.42;;;2.10;;
21424;SDS011;10873;51.132;16.848;2022-08-01T04:11:22;3.17;;;1.90;;
21424;SDS011;10873;51.132;16.848;2022-08-01T04:13:49;4.38;;;2.08;;
21424;SDS011;10873;51.132;16.848;2022-08-01T04:16:15;6.00;;;2.20;;
21424;SDS011;10873;51.132;16.848;2022-08-01T04:18:42;6.18;;;2.58;;
21424;SDS011;10873;51.132;16.848;2022-08-01T04:21:08;3.58;;;2.10;;
21424;SDS011;10873;51.132;16.848;2022-08-01T04:23:34;3.15;;;2.25;;
21424;SDS011;10873;51.132;16.848;2022-08-01T04:26:01;6.07;;;2.40;;
21424;SDS011;10873;51.132;16.848;2022-08-01T04:28:31;6.72;;;2.33;;
21424;SDS011;10873;51.132;16.848;2022-08-01T04:30:59;4.70;;;2.40;;
21424;SDS011;10873;51.132;16.848;2022-08-01T04:33:27;3.85;;;2.38;;
21424;SDS011;10873;51.132;16.848;2022-08-01T04:35:55;3.00;;;2.30;;
21424;SDS011;10873;51.132;16.848;2022-08-01T04:38:24;2.92;;;1.85;;
21424;SDS011;10873;51.132;16.848;2022-08-01T04:40:54;3.17;;;2.30;;
21424;SDS011;10873;51.132;16.848;2022-08-01T04:43:22;2.85;;;2.10;;
21424;SDS011;10873;51.132;16.848;2022-08-01T04:45:49;6.05;;;2.28;;
21424;SDS011;10873;51.132;16.848;2022-08-01T04:48:17;3.10;;;2.25;;
21424;SDS011;10873;51.132;16.848;2022-08-01T04:50:46;3.45;;;1.90;;
21424;SDS011;10873;51.132;16.848;2022-08-01T04:53:13;3.17;;;2.30;;
21424;SDS011;10873;51.132;16.848;2022-08-01T04:55:39;4.65;;;2.25;;
21424;SDS011;10873;51.132;16.848;2022-08-01T04:58:05;9.05;;;2.55;;
21424;SDS011;10873;51.132;16.848;2022-08-01T05:00:32;6.95;;;2.42;;
21424;SDS011;10873;51.132;16.848;2022-08-01T05:03:01;5.97;;;2.42;;
21424;SDS011;10873;51.132;16.848;2022-08-01T05:05:27;5.95;;;2.70;;
21424;SDS011;10873;51.132;16.848;2022-08-01T05:07:53;5.80;;;2.80;;
21424;SDS011;10873;51.132;16.848;2022-08-01T05:10:19;9.15;;;3.08;;
21424;SDS011;10873;51.132;16.848;2022-08-01T05:12:45;21.45;;;4.53;;
21424;SDS011;10873;51.132;16.848;2022-08-01T05:15:11;13.77;;;4.10;;
21424;SDS011;10873;51.132;16.848;2022-08-01T05:17:37;8.82;;;3.70;;
21424;SDS011;10873;51.132;16.848;2022-08-01T05:20:05;9.43;;;3.47;;
21424;SDS011;10873;51.132;16.848;2022-08-01T05:22:32;10.80;;;3.13;;
21424;SDS011;10873;51.132;16.848;2022-08-01T05:24:58;15.18;;;3.63;;
21424;SDS011;10873;51.132;16.848;2022-08-01T05:27:24;17.80;;;3.75;;
21424;SDS011;10873;51.132;16.848;2022-08-01T05:29:50;18.38;;;4.13;;
21424;SDS011;10873;51.132;16.848;2022-08-01T05:32:17;12.18;;;3.70;;
21424;SDS011;10873;51.132;16.848;2022-08-01T05:34:43;9.15;;;3.45;;
21424;SDS011;10873;51.132;16.848;2022-08-01T05:37:10;8.73;;;3.42;;
21424;SDS011;10873;51.132;16.848;2022-08-01T05:39:37;9.32;;;3.30;;
21424;SDS011;10873;51.132;16.848;2022-08-01T05:42:03;10.32;;;3.45;;
21424;SDS011;10873;51.132;16.848;2022-08-01T05:44:29;10.73;;;3.80;;
21424;SDS011;10873;51.132;16.848;2022-08-01T05:46:55;11.90;;;3.90;;
21424;SDS011;10873;51.132;16.848;2022-08-01T05:49:21;16.52;;;3.95;;
21424;SDS011;10873;51.132;16.848;2022-08-01T05:51:47;8.27;;;3.13;;
21424;SDS011;10873;51.132;16.848;2022-08-01T05:54:15;9.80;;;3.35;;
21424;SDS011;10873;51.132;16.848;2022-08-01T05:56:41;11.68;;;3.60;;
21424;SDS011;10873;51.132;16.848;2022-08-01T05:59:07;21.63;;;3.83;;
21424;SDS011;10873;51.132;16.848;2022-08-01T06:01:33;9.45;;;3.20;;
21424;SDS011;10873;51.132;16.848;2022-08-01T06:03:59;9.70;;;3.30;;
21424;SDS011;10873;51.132;16.848;2022-08-01T06:06:25;7.55;;;3.53;;
21424;SDS011;10873;51.132;16.848;2022-08-01T06:08:51;8.35;;;3.22;;
21424;SDS011;10873;51.132;16.848;2022-08-01T06:11:18;7.22;;;3.38;;
21424;SDS011;10873;51.132;16.848;2022-08-01T06:13:44;11.95;;;3.30;;
21424;SDS011;10873;51.132;16.848;2022-08-01T06:16:11;13.00;;;3.28;;
21424;SDS011;10873;51.132;16.848;2022-08-01T06:18:37;7.22;;;3.30;;
21424;SDS011;10873;51.132;16.848;2022-08-01T06:21:03;7.40;;;3.65;;
21424;SDS011;10873;51.132;16.848;2022-08-01T06:23:29;8.18;;;3.22;;
21424;SDS011;10873;51.132;16.848;2022-08-01T06:25:55;5.20;;;2.78;;
21424;SDS011;10873;51.132;16.848;2022-08-01T06:28:22;8.80;;;3.88;;
21424;SDS011;10873;51.132;16.848;2022-08-01T06:30:49;7.28;;;3.50;;
21424;SDS011;10873;51.132;16.848;2022-08-01T06:33:15;4.65;;;3.25;;
21424;SDS011;10873;51.132;16.848;2022-08-01T06:35:41;7.78;;;3.45;;
21424;SDS011;10873;51.132;16.848;2022-08-01T06:38:07;6.13;;;3.60;;
21424;SDS011;10873;51.132;16.848;2022-08-01T06:40:33;6.85;;;3.10;;
21424;SDS011;10873;51.132;16.848;2022-08-01T06:42:59;6.10;;;3.10;;
21424;SDS011;10873;51.132;16.848;2022-08-01T06:45:27;5.88;;;2.63;;
21424;SDS011;10873;51.132;16.848;2022-08-01T06:47:53;4.47;;;3.08;;
21424;SDS011;10873;51.132;16.848;2022-08-01T06:50:19;6.88;;;3.22;;
21424;SDS011;10873;51.132;16.848;2022-08-01T06:52:45;6.13;;;3.10;;
21424;SDS011;10873;51.132;16.848;2022-08-01T06:55:11;5.53;;;2.97;;
21424;SDS011;10873;51.132;16.848;2022-08-01T06:57:44;5.10;;;3.17;;
21424;SDS011;10873;51.132;16.848;2022-08-01T07:00:12;10.13;;;3.53;;
21424;SDS011;10873;51.132;16.848;2022-08-01T07:02:40;4.82;;;2.88;;
21424;SDS011;10873;51.132;16.848;2022-08-01T07:05:06;7.65;;;3.00;;
21424;SDS011;10873;51.132;16.848;2022-08-01T07:07:34;7.38;;;3.28;;
21424;SDS011;10873;51.132;16.848;2022-08-01T07:10:00;6.90;;;2.92;;
21424;SDS011;10873;51.132;16.848;2022-08-01T07:12:26;6.18;;;2.75;;
21424;SDS011;10873;51.132;16.848;2022-08-01T07:14:52;4.10;;;3.03;;
21424;SDS011;10873;51.132;16.848;2022-08-01T07:17:18;4.63;;;2.72;;
21424;SDS011;10873;51.132;16.848;2022-08-01T07:19:47;4.80;;;2.83;;
21424;SDS011;10873;51.132;16.848;2022-08-01T07:22:13;5.30;;;2.75;;
21424;SDS011;10873;51.132;16.848;2022-08-01T07:24:39;5.63;;;3.00;;
21424;SDS011;10873;51.132;16.848;2022-08-01T07:27:07;6.20;;;2.70;;
21424;SDS011;10873;51.132;16.848;2022-08-01T07:29:33;4.82;;;2.60;;
21424;SDS011;10873;51.132;16.848;2022-08-01T07:31:59;5.60;;;2.70;;
21424;SDS011;10873;51.132;16.848;2022-08-01T07:34:25;4.72;;;3.00;;
21424;SDS011;10873;51.132;16.848;2022-08-01T07:36:52;5.75;;;3.03;;
21424;SDS011;10873;51.132;16.848;2022-08-01T07:39:19;4.60;;;2.50;;
21424;SDS011;10873;51.132;16.848;2022-08-01T07:41:45;5.07;;;2.95;;
21424;SDS011;10873;51.132;16.848;2022-08-01T07:44:11;5.72;;;2.90;;
21424;SDS011;10873;51.132;16.848;2022-08-01T07:46:37;6.53;;;2.95;;
21424;SDS011;10873;51.132;16.848;2022-08-01T07:49:03;3.25;;;2.75;;
21424;SDS011;10873;51.132;16.848;2022-08-01T07:51:29;7.18;;;2.95;;
21424;SDS011;10873;51.132;16.848;2022-08-01T07:53:57;3.75;;;2.80;;
21424;SDS011;10873;51.132;16.848;2022-08-01T07:56:23;5.13;;;2.92;;
21424;SDS011;10873;51.132;16.848;2022-08-01T07:58:51;4.85;;;2.70;;
21424;SDS011;10873;51.132;16.848;2022-08-01T08:01:17;4.97;;;2.72;;
21424;SDS011;10873;51.132;16.848;2022-08-01T08:03:43;4.18;;;2.75;;
21424;SDS011;10873;51.132;16.848;2022-08-01T08:06:09;6.38;;;3.10;;
21424;SDS011;10873;51.132;16.848;2022-08-01T08:08:35;3.53;;;2.65;;
21424;SDS011;10873;51.132;16.848;2022-08-01T08:11:03;4.95;;;2.88;;
21424;SDS011;10873;51.132;16.848;2022-08-01T08:13:29;3.80;;;2.75;;
21424;SDS011;10873;51.132;16.848;2022-08-01T08:15:55;3.95;;;2.95;;
21424;SDS011;10873;51.132;16.848;2022-08-01T08:18:23;6.75;;;2.92;;
21424;SDS011;10873;51.132;16.848;2022-08-01T08:20:49;4.93;;;3.08;;
21424;SDS011;10873;51.132;16.848;2022-08-01T08:23:15;4.47;;;2.80;;
21424;SDS011;10873;51.132;16.848;2022-08-01T08:26:00;5.45;;;2.72;;
21424;SDS011;10873;51.132;16.848;2022-08-01T08:28:27;4.75;;;2.53;;
21424;SDS011;10873;51.132;16.848;2022-08-01T08:30:53;5.93;;;2.80;;
21424;SDS011;10873;51.132;16.848;2022-08-01T08:33:20;3.20;;;2.63;;
21424;SDS011;10873;51.132;16.848;2022-08-01T08:35:46;6.15;;;2.70;;
21424;SDS011;10873;51.132;16.848;2022-08-01T08:38:12;6.03;;;2.72;;
21424;SDS011;10873;51.132;16.848;2022-08-01T08:40:38;3.38;;;2.50;;
21424;SDS011;10873;51.132;16.848;2022-08-01T08:43:05;3.08;;;2.78;;
21424;SDS011;10873;51.132;16.848;2022-08-01T08:45:33;3.92;;;2.70;;
21424;SDS011;10873;51.132;16.848;2022-08-01T08:47:59;4.32;;;2.63;;
21424;SDS011;10873;51.132;16.848;2022-08-01T08:50:26;3.42;;;2.58;;
21424;SDS011;10873;51.132;16.848;2022-08-01T08:52:52;4.30;;;2.75;;
21424;SDS011;10873;51.132;16.848;2022-08-01T08:55:20;4.30;;;2.92;;
21424;SDS011;10873;51.132;16.848;2022-08-01T08:57:47;4.22;;;2.70;;
21424;SDS011;10873;51.132;16.848;2022-08-01T09:00:14;5.65;;;2.50;;
21424;SDS011;10873;51.132;16.848;2022-08-01T09:02:43;4.72;;;2.80;;
21424;SDS011;10873;51.132;16.848;2022-08-01T09:05:11;5.35;;;2.60;;
21424;SDS011;10873;51.132;16.848;2022-08-01T09:07:38;3.75;;;2.70;;
21424;SDS011;10873;51.132;16.848;2022-08-01T09:10:05;3.47;;;2.83;;
21424;SDS011;10873;51.132;16.848;2022-08-01T09:12:32;5.03;;;2.92;;
21424;SDS011;10873;51.132;16.848;2022-08-01T09:14:58;6.63;;;2.92;;
21424;SDS011;10873;51.132;16.848;2022-08-01T09:17:25;2.75;;;2.53;;
21424;SDS011;10873;51.132;16.848;2022-08-01T09:19:53;4.45;;;2.83;;
21424;SDS011;10873;51.132;16.848;2022-08-01T09:22:20;4.07;;;2.50;;
21424;SDS011;10873;51.132;16.848;2022-08-01T09:24:58;4.50;;;2.85;;
21424;SDS011;10873;51.132;16.848;2022-08-01T09:27:25;3.33;;;2.55;;
21424;SDS011;10873;51.132;16.848;2022-08-01T09:29:51;3.20;;;2.60;;
21424;SDS011;10873;51.132;16.848;2022-08-01T09:32:18;3.15;;;2.70;;
21424;SDS011;10873;51.132;16.848;2022-08-01T09:34:44;4.22;;;2.80;;
21424;SDS011;10873;51.132;16.848;2022-08-01T09:37:15;5.32;;;2.95;;
21424;SDS011;10873;51.132;16.848;2022-08-01T09:39:43;5.15;;;2.72;;
21424;SDS011;10873;51.132;16.848;2022-08-01T09:42:19;3.00;;;2.53;;
21424;SDS011;10873;51.132;16.848;2022-08-01T09:44:46;3.85;;;2.78;;
21424;SDS011;10873;51.132;16.848;2022-08-01T09:47:13;2.80;;;2.50;;
21424;SDS011;10873;51.132;16.848;2022-08-01T09:49:40;3.83;;;2.83;;
21424;SDS011;10873;51.132;16.848;2022-08-01T09:52:10;2.80;;;2.50;;
21424;SDS011;10873;51.132;16.848;2022-08-01T09:54:40;4.30;;;2.67;;
21424;SDS011;10873;51.132;16.848;2022-08-01T09:57:11;4.18;;;3.00;;
21424;SDS011;10873;51.132;16.848;2022-08-01T09:59:40;6.68;;;2.83;;
21424;SDS011;10873;51.132;16.848;2022-08-01T10:02:09;7.03;;;2.70;;
21424;SDS011;10873;51.132;16.848;2022-08-01T10:04:45;4.10;;;2.80;;
21424;SDS011;10873;51.132;16.848;2022-08-01T10:07:13;3.42;;;2.80;;
21424;SDS011;10873;51.132;16.848;2022-08-01T10:09:42;4.30;;;3.03;;
21424;SDS011;10873;51.132;16.848;2022-08-01T10:12:09;4.35;;;3.08;;
21424;SDS011;10873;51.132;16.848;2022-08-01T10:14:37;3.85;;;2.85;;
21424;SDS011;10873;51.132;16.848;2022-08-01T10:17:06;4.38;;;3.25;;
21424;SDS011;10873;51.132;16.848;2022-08-01T10:19:34;4.43;;;3.10;;
21424;SDS011;10873;51.132;16.848;2022-08-01T10:22:01;6.50;;;2.92;;
21424;SDS011;10873;51.132;16.848;2022-08-01T10:24:29;4.22;;;2.80;;
21424;SDS011;10873;51.132;16.848;2022-08-01T10:26:58;3.50;;;2.90;;
21424;SDS011;10873;51.132;16.848;2022-08-01T10:29:31;3.30;;;3.00;;
21424;SDS011;10873;51.132;16.848;2022-08-01T10:32:06;3.70;;;2.70;;
21424;SDS011;10873;51.132;16.848;2022-08-01T10:34:34;3.45;;;2.85;;
21424;SDS011;10873;51.132;16.848;2022-08-01T10:37:02;4.45;;;3.05;;
21424;SDS011;10873;51.132;16.848;2022-08-01T10:39:28;6.70;;;3.03;;
21424;SDS011;10873;51.132;16.848;2022-08-01T10:41:57;3.67;;;3.00;;
21424;SDS011;10873;51.132;16.848;2022-08-01T10:44:24;5.95;;;2.90;;
21424;SDS011;10873;51.132;16.848;2022-08-01T10:46:52;3.53;;;3.22;;
21424;SDS011;10873;51.132;16.848;2022-08-01T10:49:23;3.85;;;2.85;;
21424;SDS011;10873;51.132;16.848;2022-08-01T10:51:54;3.33;;;2.95;;
21424;SDS011;10873;51.132;16.848;2022-08-01T10:54:21;4.97;;;3.05;;
21424;SDS011;10873;51.132;16.848;2022-08-01T10:56:50;4.63;;;3.10;;
21424;SDS011;10873;51.132;16.848;2022-08-01T10:59:21;3.53;;;2.60;;
21424;SDS011;10873;51.132;16.848;2022-08-01T11:01:55;4.30;;;2.80;;
21424;SDS011;10873;51.132;16.848;2022-08-01T11:04:26;4.70;;;3.10;;
21424;SDS011;10873;51.132;16.848;2022-08-01T11:07:03;3.25;;;2.67;;
21424;SDS011;10873;51.132;16.848;2022-08-01T11:09:31;3.72;;;3.00;;
21424;SDS011;10873;51.132;16.848;2022-08-01T11:12:05;4.28;;;3.25;;
21424;SDS011;10873;51.132;16.848;2022-08-01T11:17:54;3.75;;;3.20;;
21424;SDS011;10873;51.132;16.848;2022-08-01T11:20:22;3.80;;;2.70;;
21424;SDS011;10873;51.132;16.848;2022-08-01T11:31:52;5.03;;;3.55;;
21424;SDS011;10873;51.132;16.848;2022-08-01T11:37:26;6.50;;;3.30;;
21424;SDS011;10873;51.132;16.848;2022-08-01T11:42:39;7.75;;;3.40;;
21424;SDS011;10873;51.132;16.848;2022-08-01T11:45:05;12.98;;;3.50;;
21424;SDS011;10873;51.132;16.848;2022-08-01T11:47:45;5.35;;;3.40;;
21424;SDS011;10873;51.132;16.848;2022-08-01T11:50:29;16.40;;;3.53;;
21424;SDS011;10873;51.132;16.848;2022-08-01T11:53:00;9.90;;;3.30;;
21424;SDS011;10873;51.132;16.848;2022-08-01T11:55:27;6.57;;;3.38;;
21424;SDS011;10873;51.132;16.848;2022-08-01T11:58:00;4.85;;;3.38;;
21424;SDS011;10873;51.132;16.848;2022-08-01T12:00:28;9.38;;;3.75;;
21424;SDS011;10873;51.132;16.848;2022-08-01T12:02:58;8.02;;;3.30;;
21424;SDS011;10873;51.132;16.848;2022-08-01T12:05:25;6.05;;;3.50;;
21424;SDS011;10873;51.132;16.848;2022-08-01T12:07:54;9.23;;;3.63;;
21424;SDS011;10873;51.132;16.848;2022-08-01T12:10:21;6.85;;;3.70;;
21424;SDS011;10873;51.132;16.848;2022-08-01T12:12:49;10.07;;;3.30;;
21424;SDS011;10873;51.132;16.848;2022-08-01T12:15:16;4.68;;;3.42;;
21424;SDS011;10873;51.132;16.848;2022-08-01T12:17:43;5.75;;;3.65;;
21424;SDS011;10873;51.132;16.848;2022-08-01T12:20:13;3.67;;;3.13;;
21424;SDS011;10873;51.132;16.848;2022-08-01T12:22:39;8.32;;;3.58;;
21424;SDS011;10873;51.132;16.848;2022-08-01T12:25:07;6.35;;;2.90;;
21424;SDS011;10873;51.132;16.848;2022-08-01T12:27:35;3.45;;;3.15;;
21424;SDS011;10873;51.132;16.848;2022-08-01T12:30:03;4.97;;;3.10;;
21424;SDS011;10873;51.132;16.848;2022-08-01T12:32:32;3.28;;;2.80;;
21424;SDS011;10873;51.132;16.848;2022-08-01T12:35:01;3.90;;;3.08;;
21424;SDS011;10873;51.132;16.848;2022-08-01T12:37:29;5.25;;;3.40;;
21424;SDS011;10873;51.132;16.848;2022-08-01T12:39:56;3.47;;;3.08;;
21424;SDS011;10873;51.132;16.848;2022-08-01T12:42:23;3.15;;;2.80;;
21424;SDS011;10873;51.132;16.848;2022-08-01T12:44:50;4.90;;;3.20;;
21424;SDS011;10873;51.132;16.848;2022-08-01T12:47:18;4.38;;;3.10;;
21424;SDS011;10873;51.132;16.848;2022-08-01T12:49:45;3.30;;;2.88;;
21424;SDS011;10873;51.132;16.848;2022-08-01T12:52:13;3.38;;;2.83;;
21424;SDS011;10873;51.132;16.848;2022-08-01T12:57:30;4.22;;;3.00;;
21424;SDS011;10873;51.132;16.848;2022-08-01T13:00:14;6.00;;;2.85;;
21424;SDS011;10873;51.132;16.848;2022-08-01T13:02:45;4.82;;;3.05;;
21424;SDS011;10873;51.132;16.848;2022-08-01T13:05:13;4.22;;;2.72;;
21424;SDS011;10873;51.132;16.848;2022-08-01T13:07:40;9.88;;;3.20;;
21424;SDS011;10873;51.132;16.848;2022-08-01T13:10:13;4.95;;;2.90;;
21424;SDS011;10873;51.132;16.848;2022-08-01T13:12:41;4.93;;;3.05;;
21424;SDS011;10873;51.132;16.848;2022-08-01T13:15:18;3.78;;;2.88;;
21424;SDS011;10873;51.132;16.848;2022-08-01T13:17:46;4.10;;;3.10;;
21424;SDS011;10873;51.132;16.848;2022-08-01T13:20:20;3.70;;;3.30;;
21424;SDS011;10873;51.132;16.848;2022-08-01T13:22:48;4.63;;;2.67;;
21424;SDS011;10873;51.132;16.848;2022-08-01T13:25:15;3.13;;;2.88;;
21424;SDS011;10873;51.132;16.848;2022-08-01T13:27:42;5.25;;;2.70;;
21424;SDS011;10873;51.132;16.848;2022-08-01T13:30:12;5.47;;;2.85;;
21424;SDS011;10873;51.132;16.848;2022-08-01T13:32:38;3.92;;;2.75;;
21424;SDS011;10873;51.132;16.848;2022-08-01T13:35:05;4.38;;;2.80;;
21424;SDS011;10873;51.132;16.848;2022-08-01T13:37:33;4.03;;;3.00;;
21424;SDS011;10873;51.132;16.848;2022-08-01T13:39:59;6.47;;;2.67;;
21424;SDS011;10873;51.132;16.848;2022-08-01T13:42:26;3.33;;;2.47;;
21424;SDS011;10873;51.132;16.848;2022-08-01T13:44:54;5.43;;;2.70;;
21424;SDS011;10873;51.132;16.848;2022-08-01T13:47:20;3.75;;;2.40;;
21424;SDS011;10873;51.132;16.848;2022-08-01T13:49:46;4.32;;;2.35;;
21424;SDS011;10873;51.132;16.848;2022-08-01T13:52:12;5.85;;;2.30;;
21424;SDS011;10873;51.132;16.848;2022-08-01T13:54:38;3.35;;;2.50;;
21424;SDS011;10873;51.132;16.848;2022-08-01T13:57:04;2.92;;;2.60;;
21424;SDS011;10873;51.132;16.848;2022-08-01T13:59:32;2.88;;;2.40;;
21424;SDS011;10873;51.132;16.848;2022-08-01T14:01:58;2.63;;;2.28;;
21424;SDS011;10873;51.132;16.848;2022-08-01T14:04:24;3.05;;;2.60;;
21424;SDS011;10873;51.132;16.848;2022-08-01T14:06:51;2.38;;;2.13;;
21424;SDS011;10873;51.132;16.848;2022-08-01T14:09:17;5.35;;;2.80;;
21424;SDS011;10873;51.132;16.848;2022-08-01T14:11:44;3.38;;;2.33;;
21424;SDS011;10873;51.132;16.848;2022-08-01T14:14:11;3.15;;;2.50;;
21424;SDS011;10873;51.132;16.848;2022-08-01T14:16:38;5.22;;;3.08;;
21424;SDS011;10873;51.132;16.848;2022-08-01T14:19:04;4.82;;;3.10;;
21424;SDS011;10873;51.132;16.848;2022-08-01T14:21:30;6.38;;;3.30;;
21424;SDS011;10873;51.132;16.848;2022-08-01T14:23:56;7.38;;;3.30;;
21424;SDS011;10873;51.132;16.848;2022-08-01T14:26:22;5.63;;;3.10;;
21424;SDS011;10873;51.132;16.848;2022-08-01T14:28:49;5.40;;;3.58;;
21424;SDS011;10873;51.132;16.848;2022-08-01T14:31:15;4.13;;;2.75;;
21424;SDS011;10873;51.132;16.848;2022-08-01T14:33:42;3.88;;;2.75;;
21424;SDS011;10873;51.132;16.848;2022-08-01T14:36:08;3.60;;;3.00;;
21424;SDS011;10873;51.132;16.848;2022-08-01T14:38:34;6.30;;;3.20;;
21424;SDS011;10873;51.132;16.848;2022-08-01T14:41:00;7.32;;;3.85;;
21424;SDS011;10873;51.132;16.848;2022-08-01T14:43:28;4.80;;;3.10;;
21424;SDS011;10873;51.132;16.848;2022-08-01T14:45:56;6.07;;;2.75;;
21424;SDS011;10873;51.132;16.848;2022-08-01T14:48:22;3.97;;;3.00;;
21424;SDS011;10873;51.132;16.848;2022-08-01T14:50:50;4.85;;;3.00;;
21424;SDS011;10873;51.132;16.848;2022-08-01T14:53:16;5.75;;;2.53;;
21424;SDS011;10873;51.132;16.848;2022-08-01T14:55:42;3.10;;;2.70;;
21424;SDS011;10873;51.132;16.848;2022-08-01T14:58:09;4.38;;;2.47;;
21424;SDS011;10873;51.132;16.848;2022-08-01T15:00:35;6.78;;;2.78;;
21424;SDS011;10873;51.132;16.848;2022-08-01T15:03:01;2.90;;;2.30;;
21424;SDS011;10873;51.132;16.848;2022-08-01T15:05:27;2.40;;;2.20;;
21424;SDS011;10873;51.132;16.848;2022-08-01T15:07:55;3.20;;;2.65;;
21424;SDS011;10873;51.132;16.848;2022-08-01T15:10:21;2.63;;;2.40;;
21424;SDS011;10873;51.132;16.848;2022-08-01T15:12:48;3.88;;;2.40;;
21424;SDS011;10873;51.132;16.848;2022-08-01T15:15:14;4.38;;;2.70;;
21424;SDS011;10873;51.132;16.848;2022-08-01T15:17:40;3.58;;;2.67;;